sensor_id;sensor_type;location;lat;lon;timestamp;P1;durP1;ratioP1;P2;durP2;ratioP2
36653;SDS011;22650;49.350;20.898;2023-01-23T00:02:26;25.05;;;8.90;;
36653;SDS011;22650;49.350;20.898;2023-01-23T00:05:00;31.60;;;8.32;;
36653;SDS011;22650;49.350;20.898;2023-01-23T00:07:35;21.60;;;8.63;;
36653;SDS011;22650;49.350;20.898;2023-01-23T00:10:09;44.75;;;9.82;;
36653;SDS011;22650;49.350;20.898;2023-01-23T00:12:44;28.65;;;10.35;;
36653;SDS011;22650;49.350;20.898;2023-01-23T00:15:19;39.03;;;11.02;;
36653;SDS011;22650;49.350;20.898;2023-01-23T00:17:53;49.80;;;11.43;;
36653;SDS011;22650;49.350;20.898;2023-01-23T00:20:27;41.47;;;11.32;;
36653;SDS011;22650;49.350;20.898;2023-01-23T00:23:02;33.78;;;10.95;;
36653;SDS011;22650;49.350;20.898;2023-01-23T00:25:35;36.65;;;11.68;;
36653;SDS011;22650;49.350;20.898;2023-01-23T00:28:09;32.80;;;10.27;;
36653;SDS011;22650;49.350;20.898;2023-01-23T00:30:43;58.47;;;13.60;;
36653;SDS011;22650;49.350;20.898;2023-01-23T00:33:17;44.28;;;13.25;;
36653;SDS011;22650;49.350;20.898;2023-01-23T00:35:52;23.33;;;10.13;;
36653;SDS011;22650;49.350;20.898;2023-01-23T00:38:28;29.05;;;10.48;;
36653;SDS011;22650;49.350;20.898;2023-01-23T00:41:02;23.65;;;9.10;;
36653;SDS011;22650;49.350;20.898;2023-01-23T00:43:36;27.98;;;10.00;;
36653;SDS011;22650;49.350;20.898;2023-01-23T00:46:10;21.50;;;8.45;;
36653;SDS011;22650;49.350;20.898;2023-01-23T00:48:44;19.65;;;8.15;;
36653;SDS011;22650;49.350;20.898;2023-01-23T00:51:17;23.13;;;8.27;;
36653;SDS011;22650;49.350;20.898;2023-01-23T00:53:53;19.55;;;7.90;;
36653;SDS011;22650;49.350;20.898;2023-01-23T00:56:26;18.85;;;7.97;;
36653;SDS011;22650;49.350;20.898;2023-01-23T00:59:00;17.90;;;7.60;;
36653;SDS011;22650;49.350;20.898;2023-01-23T01:01:34;19.15;;;7.60;;
36653;SDS011;22650;49.350;20.898;2023-01-23T01:04:08;18.13;;;8.18;;
36653;SDS011;22650;49.350;20.898;2023-01-23T01:06:42;19.77;;;7.60;;
36653;SDS011;22650;49.350;20.898;2023-01-23T01:09:17;19.70;;;7.47;;
36653;SDS011;22650;49.350;20.898;2023-01-23T01:11:51;20.92;;;7.93;;
36653;SDS011;22650;49.350;20.898;2023-01-23T01:14:24;19.85;;;8.23;;
36653;SDS011;22650;49.350;20.898;2023-01-23T01:16:58;26.27;;;8.68;;
36653;SDS011;22650;49.350;20.898;2023-01-23T01:19:32;23.17;;;7.90;;
36653;SDS011;22650;49.350;20.898;2023-01-23T01:22:08;22.73;;;9.02;;
36653;SDS011;22650;49.350;20.898;2023-01-23T01:24:43;20.13;;;8.00;;
36653;SDS011;22650;49.350;20.898;2023-01-23T01:27:17;21.60;;;8.45;;
36653;SDS011;22650;49.350;20.898;2023-01-23T01:29:51;24.92;;;8.40;;
36653;SDS011;22650;49.350;20.898;2023-01-23T01:32:24;18.92;;;8.60;;
36653;SDS011;22650;49.350;20.898;2023-01-23T01:34:58;26.20;;;9.70;;
36653;SDS011;22650;49.350;20.898;2023-01-23T01:37:32;20.85;;;8.98;;
36653;SDS011;22650;49.350;20.898;2023-01-23T01:40:09;22.60;;;8.55;;
36653;SDS011;22650;49.350;20.898;2023-01-23T01:42:47;20.55;;;8.10;;
36653;SDS011;22650;49.350;20.898;2023-01-23T01:48:38;19.77;;;7.43;;
36653;SDS011;22650;49.350;20.898;2023-01-23T01:51:18;21.17;;;7.97;;
36653;SDS011;22650;49.350;20.898;2023-01-23T01:53:57;23.98;;;8.05;;
36653;SDS011;22650;49.350;20.898;2023-01-23T01:56:38;22.05;;;8.05;;
36653;SDS011;22650;49.350;20.898;2023-01-23T01:59:16;16.80;;;7.72;;
36653;SDS011;22650;49.350;20.898;2023-01-23T02:01:52;14.80;;;7.13;;
36653;SDS011;22650;49.350;20.898;2023-01-23T02:04:39;17.95;;;7.80;;
36653;SDS011;22650;49.350;20.898;2023-01-23T02:07:18;24.02;;;8.50;;
36653;SDS011;22650;49.350;20.898;2023-01-23T02:09:57;23.02;;;7.97;;
36653;SDS011;22650;49.350;20.898;2023-01-23T02:12:34;23.60;;;7.57;;
36653;SDS011;22650;49.350;20.898;2023-01-23T02:15:09;20.25;;;7.88;;
36653;SDS011;22650;49.350;20.898;2023-01-23T02:17:43;17.75;;;7.35;;
36653;SDS011;22650;49.350;20.898;2023-01-23T02:20:19;17.88;;;7.70;;
36653;SDS011;22650;49.350;20.898;2023-01-23T02:22:57;17.40;;;6.70;;
36653;SDS011;22650;49.350;20.898;2023-01-23T02:28:17;16.73;;;5.80;;
36653;SDS011;22650;49.350;20.898;2023-01-23T02:30:51;12.02;;;6.05;;
36653;SDS011;22650;49.350;20.898;2023-01-23T02:33:42;16.27;;;5.63;;
36653;SDS011;22650;49.350;20.898;2023-01-23T02:36:22;12.32;;;5.32;;
36653;SDS011;22650;49.350;20.898;2023-01-23T02:39:04;12.38;;;5.60;;
36653;SDS011;22650;49.350;20.898;2023-01-23T02:41:41;15.88;;;6.18;;
36653;SDS011;22650;49.350;20.898;2023-01-23T02:44:18;11.93;;;5.55;;
36653;SDS011;22650;49.350;20.898;2023-01-23T02:47:02;13.65;;;6.22;;
36653;SDS011;22650;49.350;20.898;2023-01-23T02:49:38;20.23;;;7.40;;
36653;SDS011;22650;49.350;20.898;2023-01-23T02:52:14;20.05;;;6.85;;
36653;SDS011;22650;49.350;20.898;2023-01-23T02:54:48;20.48;;;9.25;;
36653;SDS011;22650;49.350;20.898;2023-01-23T02:57:21;27.45;;;8.45;;
36653;SDS011;22650;49.350;20.898;2023-01-23T02:59:57;15.20;;;6.50;;
36653;SDS011;22650;49.350;20.898;2023-01-23T03:02:49;20.80;;;7.82;;
36653;SDS011;22650;49.350;20.898;2023-01-23T03:05:23;15.63;;;5.57;;
36653;SDS011;22650;49.350;20.898;2023-01-23T03:07:57;15.82;;;6.10;;
36653;SDS011;22650;49.350;20.898;2023-01-23T03:10:31;15.90;;;6.53;;
36653;SDS011;22650;49.350;20.898;2023-01-23T03:13:05;17.33;;;5.60;;
36653;SDS011;22650;49.350;20.898;2023-01-23T03:15:43;12.40;;;5.75;;
36653;SDS011;22650;49.350;20.898;2023-01-23T03:18:16;12.68;;;6.05;;
36653;SDS011;22650;49.350;20.898;2023-01-23T03:20:50;14.77;;;5.82;;
36653;SDS011;22650;49.350;20.898;2023-01-23T03:23:24;17.15;;;5.63;;
36653;SDS011;22650;49.350;20.898;2023-01-23T03:25:58;12.95;;;5.32;;
36653;SDS011;22650;49.350;20.898;2023-01-23T03:28:34;13.73;;;5.95;;
36653;SDS011;22650;49.350;20.898;2023-01-23T03:31:26;10.77;;;4.53;;
36653;SDS011;22650;49.350;20.898;2023-01-23T03:34:00;12.02;;;5.38;;
36653;SDS011;22650;49.350;20.898;2023-01-23T03:36:36;12.52;;;5.93;;
36653;SDS011;22650;49.350;20.898;2023-01-23T03:39:11;11.10;;;6.03;;
36653;SDS011;22650;49.350;20.898;2023-01-23T03:42:02;12.32;;;5.40;;
36653;SDS011;22650;49.350;20.898;2023-01-23T03:44:36;10.43;;;5.25;;
36653;SDS011;22650;49.350;20.898;2023-01-23T03:47:12;10.20;;;5.60;;
36653;SDS011;22650;49.350;20.898;2023-01-23T03:49:45;9.65;;;4.38;;
36653;SDS011;22650;49.350;20.898;2023-01-23T03:52:19;13.35;;;5.20;;
36653;SDS011;22650;49.350;20.898;2023-01-23T03:54:53;10.05;;;5.13;;
36653;SDS011;22650;49.350;20.898;2023-01-23T03:57:27;14.65;;;6.38;;
36653;SDS011;22650;49.350;20.898;2023-01-23T04:00:27;17.58;;;7.93;;
36653;SDS011;22650;49.350;20.898;2023-01-23T04:03:06;18.88;;;6.65;;
36653;SDS011;22650;49.350;20.898;2023-01-23T04:05:42;14.02;;;5.53;;
36653;SDS011;22650;49.350;20.898;2023-01-23T04:08:15;12.60;;;5.90;;
36653;SDS011;22650;49.350;20.898;2023-01-23T04:10:50;13.02;;;6.60;;
36653;SDS011;22650;49.350;20.898;2023-01-23T04:13:32;17.98;;;5.85;;
36653;SDS011;22650;49.350;20.898;2023-01-23T04:16:06;9.82;;;5.10;;
36653;SDS011;22650;49.350;20.898;2023-01-23T04:18:42;10.70;;;4.97;;
36653;SDS011;22650;49.350;20.898;2023-01-23T04:21:16;11.77;;;5.65;;
36653;SDS011;22650;49.350;20.898;2023-01-23T04:23:50;12.65;;;5.95;;
36653;SDS011;22650;49.350;20.898;2023-01-23T04:26:23;11.25;;;5.07;;
36653;SDS011;22650;49.350;20.898;2023-01-23T04:28:57;9.05;;;4.75;;
36653;SDS011;22650;49.350;20.898;2023-01-23T04:31:31;10.02;;;4.15;;
36653;SDS011;22650;49.350;20.898;2023-01-23T04:34:08;15.50;;;4.75;;
36653;SDS011;22650;49.350;20.898;2023-01-23T04:36:43;10.43;;;4.75;;
36653;SDS011;22650;49.350;20.898;2023-01-23T04:39:17;8.40;;;4.28;;
36653;SDS011;22650;49.350;20.898;2023-01-23T04:41:52;9.52;;;4.78;;
36653;SDS011;22650;49.350;20.898;2023-01-23T04:44:52;12.02;;;4.95;;
36653;SDS011;22650;49.350;20.898;2023-01-23T04:47:55;10.70;;;4.65;;
36653;SDS011;22650;49.350;20.898;2023-01-23T04:50:32;13.95;;;5.30;;
36653;SDS011;22650;49.350;20.898;2023-01-23T04:53:06;12.73;;;5.80;;
36653;SDS011;22650;49.350;20.898;2023-01-23T04:55:41;12.90;;;5.95;;
36653;SDS011;22650;49.350;20.898;2023-01-23T04:58:18;11.90;;;5.10;;
36653;SDS011;22650;49.350;20.898;2023-01-23T05:00:52;8.65;;;4.47;;
36653;SDS011;22650;49.350;20.898;2023-01-23T05:03:32;14.63;;;5.40;;
36653;SDS011;22650;49.350;20.898;2023-01-23T05:06:08;13.95;;;6.05;;
36653;SDS011;22650;49.350;20.898;2023-01-23T05:08:42;13.20;;;5.15;;
36653;SDS011;22650;49.350;20.898;2023-01-23T05:11:23;12.27;;;4.93;;
36653;SDS011;22650;49.350;20.898;2023-01-23T05:13:57;15.68;;;5.45;;
36653;SDS011;22650;49.350;20.898;2023-01-23T05:16:32;13.90;;;5.82;;
36653;SDS011;22650;49.350;20.898;2023-01-23T05:19:30;10.82;;;4.10;;
36653;SDS011;22650;49.350;20.898;2023-01-23T05:22:07;11.20;;;5.50;;
36653;SDS011;22650;49.350;20.898;2023-01-23T05:24:41;11.35;;;5.13;;
36653;SDS011;22650;49.350;20.898;2023-01-23T05:27:15;13.93;;;4.85;;
36653;SDS011;22650;49.350;20.898;2023-01-23T05:29:51;10.52;;;5.68;;
36653;SDS011;22650;49.350;20.898;2023-01-23T05:32:28;11.23;;;4.85;;
36653;SDS011;22650;49.350;20.898;2023-01-23T05:35:20;11.52;;;5.53;;
36653;SDS011;22650;49.350;20.898;2023-01-23T05:37:55;10.88;;;5.50;;
36653;SDS011;22650;49.350;20.898;2023-01-23T05:40:29;15.75;;;5.43;;
36653;SDS011;22650;49.350;20.898;2023-01-23T05:43:18;12.60;;;5.45;;
36653;SDS011;22650;49.350;20.898;2023-01-23T05:46:30;15.73;;;5.40;;
36653;SDS011;22650;49.350;20.898;2023-01-23T05:49:06;14.77;;;6.20;;
36653;SDS011;22650;49.350;20.898;2023-01-23T05:51:40;14.23;;;5.20;;
36653;SDS011;22650;49.350;20.898;2023-01-23T05:54:16;12.98;;;5.55;;
36653;SDS011;22650;49.350;20.898;2023-01-23T05:56:50;10.40;;;5.80;;
36653;SDS011;22650;49.350;20.898;2023-01-23T05:59:43;13.50;;;6.10;;
36653;SDS011;22650;49.350;20.898;2023-01-23T06:02:43;16.45;;;5.68;;
36653;SDS011;22650;49.350;20.898;2023-01-23T06:05:40;20.30;;;6.82;;
36653;SDS011;22650;49.350;20.898;2023-01-23T06:08:20;13.68;;;7.32;;
36653;SDS011;22650;49.350;20.898;2023-01-23T06:10:57;21.73;;;7.30;;
36653;SDS011;22650;49.350;20.898;2023-01-23T06:13:32;18.50;;;6.28;;
36653;SDS011;22650;49.350;20.898;2023-01-23T06:16:06;12.63;;;5.68;;
36653;SDS011;22650;49.350;20.898;2023-01-23T06:18:42;27.15;;;12.88;;
36653;SDS011;22650;49.350;20.898;2023-01-23T06:21:17;19.98;;;10.13;;
36653;SDS011;22650;49.350;20.898;2023-01-23T06:23:51;30.75;;;14.18;;
36653;SDS011;22650;49.350;20.898;2023-01-23T06:26:27;20.80;;;9.85;;
36653;SDS011;22650;49.350;20.898;2023-01-23T06:29:01;17.00;;;6.65;;
36653;SDS011;22650;49.350;20.898;2023-01-23T06:31:34;13.00;;;7.32;;
36653;SDS011;22650;49.350;20.898;2023-01-23T06:34:09;14.38;;;6.40;;
36653;SDS011;22650;49.350;20.898;2023-01-23T06:36:47;13.10;;;6.05;;
36653;SDS011;22650;49.350;20.898;2023-01-23T06:39:21;14.60;;;5.18;;
36653;SDS011;22650;49.350;20.898;2023-01-23T06:41:57;13.40;;;7.13;;
36653;SDS011;22650;49.350;20.898;2023-01-23T06:44:31;16.58;;;7.45;;
36653;SDS011;22650;49.350;20.898;2023-01-23T06:47:04;17.55;;;7.15;;
36653;SDS011;22650;49.350;20.898;2023-01-23T06:49:38;16.60;;;6.90;;
36653;SDS011;22650;49.350;20.898;2023-01-23T06:52:12;18.15;;;6.90;;
36653;SDS011;22650;49.350;20.898;2023-01-23T06:54:48;19.70;;;7.07;;
36653;SDS011;22650;49.350;20.898;2023-01-23T06:57:23;18.50;;;6.78;;
36653;SDS011;22650;49.350;20.898;2023-01-23T06:59:57;20.83;;;8.85;;
36653;SDS011;22650;49.350;20.898;2023-01-23T07:02:31;20.95;;;8.43;;
36653;SDS011;22650;49.350;20.898;2023-01-23T07:05:05;51.92;;;15.77;;
36653;SDS011;22650;49.350;20.898;2023-01-23T07:07:39;49.42;;;15.90;;
36653;SDS011;22650;49.350;20.898;2023-01-23T07:10:12;33.60;;;13.75;;
36653;SDS011;22650;49.350;20.898;2023-01-23T07:12:47;28.75;;;12.15;;
36653;SDS011;22650;49.350;20.898;2023-01-23T07:15:21;31.70;;;11.70;;
36653;SDS011;22650;49.350;20.898;2023-01-23T07:17:55;23.80;;;7.68;;
36653;SDS011;22650;49.350;20.898;2023-01-23T07:20:28;18.00;;;6.80;;
36653;SDS011;22650;49.350;20.898;2023-01-23T07:23:03;18.55;;;8.52;;
36653;SDS011;22650;49.350;20.898;2023-01-23T07:25:37;23.05;;;9.68;;
36653;SDS011;22650;49.350;20.898;2023-01-23T07:28:12;19.15;;;8.50;;
36653;SDS011;22650;49.350;20.898;2023-01-23T07:30:46;18.35;;;8.05;;
36653;SDS011;22650;49.350;20.898;2023-01-23T07:33:22;17.15;;;7.30;;
36653;SDS011;22650;49.350;20.898;2023-01-23T07:35:56;25.77;;;9.52;;
36653;SDS011;22650;49.350;20.898;2023-01-23T07:38:30;17.83;;;8.27;;
36653;SDS011;22650;49.350;20.898;2023-01-23T07:41:03;27.98;;;10.05;;
36653;SDS011;22650;49.350;20.898;2023-01-23T07:43:42;21.13;;;9.10;;
36653;SDS011;22650;49.350;20.898;2023-01-23T07:46:15;25.80;;;8.70;;
36653;SDS011;22650;49.350;20.898;2023-01-23T07:48:49;23.17;;;8.80;;
36653;SDS011;22650;49.350;20.898;2023-01-23T07:51:23;13.68;;;6.20;;
36653;SDS011;22650;49.350;20.898;2023-01-23T07:53:56;14.80;;;5.55;;
36653;SDS011;22650;49.350;20.898;2023-01-23T07:56:30;16.80;;;7.28;;
36653;SDS011;22650;49.350;20.898;2023-01-23T07:59:05;17.13;;;6.95;;
36653;SDS011;22650;49.350;20.898;2023-01-23T08:01:44;24.25;;;8.35;;
36653;SDS011;22650;49.350;20.898;2023-01-23T08:04:22;16.35;;;6.63;;
36653;SDS011;22650;49.350;20.898;2023-01-23T08:07:21;20.10;;;7.22;;
36653;SDS011;22650;49.350;20.898;2023-01-23T08:10:09;17.00;;;7.30;;
36653;SDS011;22650;49.350;20.898;2023-01-23T08:13:49;16.10;;;7.50;;
36653;SDS011;22650;49.350;20.898;2023-01-23T08:16:25;15.75;;;7.97;;
36653;SDS011;22650;49.350;20.898;2023-01-23T08:18:58;18.05;;;7.32;;
36653;SDS011;22650;49.350;20.898;2023-01-23T08:21:32;18.90;;;7.40;;
36653;SDS011;22650;49.350;20.898;2023-01-23T08:24:06;22.83;;;8.75;;
36653;SDS011;22650;49.350;20.898;2023-01-23T08:26:40;19.85;;;9.50;;
36653;SDS011;22650;49.350;20.898;2023-01-23T08:29:14;25.50;;;9.60;;
36653;SDS011;22650;49.350;20.898;2023-01-23T08:31:49;18.40;;;8.50;;
36653;SDS011;22650;49.350;20.898;2023-01-23T08:34:25;18.15;;;8.30;;
36653;SDS011;22650;49.350;20.898;2023-01-23T08:36:59;18.67;;;8.25;;
36653;SDS011;22650;49.350;20.898;2023-01-23T08:39:32;16.80;;;7.53;;
36653;SDS011;22650;49.350;20.898;2023-01-23T08:42:06;18.70;;;8.73;;
36653;SDS011;22650;49.350;20.898;2023-01-23T08:44:40;17.73;;;8.82;;
36653;SDS011;22650;49.350;20.898;2023-01-23T08:47:15;18.15;;;7.90;;
36653;SDS011;22650;49.350;20.898;2023-01-23T08:49:48;15.35;;;7.22;;
36653;SDS011;22650;49.350;20.898;2023-01-23T08:52:22;19.38;;;8.15;;
36653;SDS011;22650;49.350;20.898;2023-01-23T08:54:57;17.90;;;8.77;;
36653;SDS011;22650;49.350;20.898;2023-01-23T08:57:31;23.17;;;9.00;;
36653;SDS011;22650;49.350;20.898;2023-01-23T09:00:05;17.98;;;8.18;;
36653;SDS011;22650;49.350;20.898;2023-01-23T09:02:42;19.83;;;8.82;;
36653;SDS011;22650;49.350;20.898;2023-01-23T09:05:16;24.75;;;9.13;;
36653;SDS011;22650;49.350;20.898;2023-01-23T09:07:50;20.00;;;9.15;;
36653;SDS011;22650;49.350;20.898;2023-01-23T09:10:23;21.00;;;9.68;;
36653;SDS011;22650;49.350;20.898;2023-01-23T09:12:58;22.30;;;10.13;;
36653;SDS011;22650;49.350;20.898;2023-01-23T09:15:31;27.92;;;10.35;;
36653;SDS011;22650;49.350;20.898;2023-01-23T09:18:06;23.30;;;11.48;;
36653;SDS011;22650;49.350;20.898;2023-01-23T09:20:40;22.38;;;11.65;;
36653;SDS011;22650;49.350;20.898;2023-01-23T09:23:14;27.55;;;12.65;;
36653;SDS011;22650;49.350;20.898;2023-01-23T09:25:47;30.63;;;15.55;;
36653;SDS011;22650;49.350;20.898;2023-01-23T09:28:21;27.35;;;13.32;;
36653;SDS011;22650;49.350;20.898;2023-01-23T09:30:54;27.00;;;10.85;;
36653;SDS011;22650;49.350;20.898;2023-01-23T09:33:30;21.80;;;10.55;;
36653;SDS011;22650;49.350;20.898;2023-01-23T09:36:04;22.10;;;9.10;;
36653;SDS011;22650;49.350;20.898;2023-01-23T09:38:38;25.67;;;12.27;;
36653;SDS011;22650;49.350;20.898;2023-01-23T09:41:13;31.90;;;14.32;;
36653;SDS011;22650;49.350;20.898;2023-01-23T09:43:51;23.00;;;11.88;;
36653;SDS011;22650;49.350;20.898;2023-01-23T09:46:31;28.23;;;10.68;;
36653;SDS011;22650;49.350;20.898;2023-01-23T09:49:11;23.17;;;9.73;;
36653;SDS011;22650;49.350;20.898;2023-01-23T09:51:48;17.80;;;8.52;;
36653;SDS011;22650;49.350;20.898;2023-01-23T09:54:33;18.40;;;7.85;;
36653;SDS011;22650;49.350;20.898;2023-01-23T09:57:15;16.48;;;6.75;;
36653;SDS011;22650;49.350;20.898;2023-01-23T09:59:53;17.17;;;7.93;;
36653;SDS011;22650;49.350;20.898;2023-01-23T10:02:35;19.52;;;8.85;;
36653;SDS011;22650;49.350;20.898;2023-01-23T10:05:12;15.23;;;7.38;;
36653;SDS011;22650;49.350;20.898;2023-01-23T10:07:51;13.88;;;7.13;;
36653;SDS011;22650;49.350;20.898;2023-01-23T10:10:52;18.23;;;7.80;;
36653;SDS011;22650;49.350;20.898;2023-01-23T10:13:32;14.85;;;7.13;;
36653;SDS011;22650;49.350;20.898;2023-01-23T10:16:31;15.63;;;7.03;;
36653;SDS011;22650;49.350;20.898;2023-01-23T10:19:29;17.75;;;7.70;;
36653;SDS011;22650;49.350;20.898;2023-01-23T10:22:23;15.30;;;7.77;;
36653;SDS011;22650;49.350;20.898;2023-01-23T10:25:10;13.10;;;5.63;;
36653;SDS011;22650;49.350;20.898;2023-01-23T10:27:47;8.82;;;3.90;;
36653;SDS011;22650;49.350;20.898;2023-01-23T10:30:24;11.82;;;6.28;;
36653;SDS011;22650;49.350;20.898;2023-01-23T10:33:00;16.45;;;5.15;;
36653;SDS011;22650;49.350;20.898;2023-01-23T10:35:43;14.23;;;5.63;;
36653;SDS011;22650;49.350;20.898;2023-01-23T10:38:24;11.75;;;4.90;;
36653;SDS011;22650;49.350;20.898;2023-01-23T10:41:04;9.32;;;5.07;;
36653;SDS011;22650;49.350;20.898;2023-01-23T10:43:53;14.23;;;5.63;;
36653;SDS011;22650;49.350;20.898;2023-01-23T10:46:30;7.28;;;4.45;;
36653;SDS011;22650;49.350;20.898;2023-01-23T10:49:08;9.57;;;4.68;;
36653;SDS011;22650;49.350;20.898;2023-01-23T10:51:45;10.25;;;4.43;;
36653;SDS011;22650;49.350;20.898;2023-01-23T10:54:21;9.40;;;4.75;;
36653;SDS011;22650;49.350;20.898;2023-01-23T10:57:18;11.80;;;4.85;;
36653;SDS011;22650;49.350;20.898;2023-01-23T10:59:54;9.38;;;5.00;;
36653;SDS011;22650;49.350;20.898;2023-01-23T11:02:31;10.25;;;5.35;;
36653;SDS011;22650;49.350;20.898;2023-01-23T11:08:23;10.18;;;4.82;;
36653;SDS011;22650;49.350;20.898;2023-01-23T11:11:18;8.82;;;4.30;;
36653;SDS011;22650;49.350;20.898;2023-01-23T11:14:04;6.80;;;3.58;;
36653;SDS011;22650;49.350;20.898;2023-01-23T11:16:39;7.88;;;4.47;;
36653;SDS011;22650;49.350;20.898;2023-01-23T11:19:15;6.75;;;3.75;;
36653;SDS011;22650;49.350;20.898;2023-01-23T11:21:53;8.00;;;4.05;;
36653;SDS011;22650;49.350;20.898;2023-01-23T11:24:30;6.82;;;3.67;;
36653;SDS011;22650;49.350;20.898;2023-01-23T11:27:18;7.85;;;3.67;;
36653;SDS011;22650;49.350;20.898;2023-01-23T11:30:03;8.75;;;3.90;;
36653;SDS011;22650;49.350;20.898;2023-01-23T11:32:53;8.40;;;4.15;;
36653;SDS011;22650;49.350;20.898;2023-01-23T11:35:37;9.10;;;3.95;;
36653;SDS011;22650;49.350;20.898;2023-01-23T11:38:22;7.95;;;3.35;;
36653;SDS011;22650;49.350;20.898;2023-01-23T11:41:02;6.68;;;3.47;;
36653;SDS011;22650;49.350;20.898;2023-01-23T11:43:39;5.97;;;3.38;;
36653;SDS011;22650;49.350;20.898;2023-01-23T11:46:18;8.88;;;3.45;;
36653;SDS011;22650;49.350;20.898;2023-01-23T11:49:23;8.20;;;3.78;;
36653;SDS011;22650;49.350;20.898;2023-01-23T11:52:12;9.07;;;4.47;;
36653;SDS011;22650;49.350;20.898;2023-01-23T11:55:03;5.90;;;3.05;;
36653;SDS011;22650;49.350;20.898;2023-01-23T11:57:49;14.38;;;3.63;;
36653;SDS011;22650;49.350;20.898;2023-01-23T12:00:37;6.15;;;3.63;;
36653;SDS011;22650;49.350;20.898;2023-01-23T12:06:54;5.88;;;3.22;;
36653;SDS011;22650;49.350;20.898;2023-01-23T12:09:52;7.85;;;4.07;;
36653;SDS011;22650;49.350;20.898;2023-01-23T12:15:30;7.93;;;3.90;;
36653;SDS011;22650;49.350;20.898;2023-01-23T12:18:16;4.80;;;3.47;;
36653;SDS011;22650;49.350;20.898;2023-01-23T12:21:02;5.78;;;3.28;;
36653;SDS011;22650;49.350;20.898;2023-01-23T12:23:48;6.13;;;2.80;;
36653;SDS011;22650;49.350;20.898;2023-01-23T12:26:30;6.10;;;3.15;;
36653;SDS011;22650;49.350;20.898;2023-01-23T12:29:09;6.25;;;3.08;;
36653;SDS011;22650;49.350;20.898;2023-01-23T12:32:02;7.25;;;2.88;;
36653;SDS011;22650;49.350;20.898;2023-01-23T12:34:49;6.50;;;4.13;;
36653;SDS011;22650;49.350;20.898;2023-01-23T12:37:43;6.55;;;3.60;;
36653;SDS011;22650;49.350;20.898;2023-01-23T12:40:31;7.65;;;3.40;;
36653;SDS011;22650;49.350;20.898;2023-01-23T12:43:10;7.68;;;3.20;;
36653;SDS011;22650;49.350;20.898;2023-01-23T12:45:51;9.48;;;4.00;;
36653;SDS011;22650;49.350;20.898;2023-01-23T12:48:31;7.60;;;3.88;;
36653;SDS011;22650;49.350;20.898;2023-01-23T12:51:11;11.48;;;5.38;;
36653;SDS011;22650;49.350;20.898;2023-01-23T12:53:51;13.80;;;6.22;;
36653;SDS011;22650;49.350;20.898;2023-01-23T12:56:29;9.93;;;5.00;;
36653;SDS011;22650;49.350;20.898;2023-01-23T12:59:08;8.07;;;4.15;;
36653;SDS011;22650;49.350;20.898;2023-01-23T13:01:51;8.15;;;3.83;;
36653;SDS011;22650;49.350;20.898;2023-01-23T13:04:35;10.90;;;5.40;;
36653;SDS011;22650;49.350;20.898;2023-01-23T13:07:30;11.73;;;6.00;;
36653;SDS011;22650;49.350;20.898;2023-01-23T13:10:15;8.13;;;4.40;;
36653;SDS011;22650;49.350;20.898;2023-01-23T13:13:20;10.85;;;4.90;;
36653;SDS011;22650;49.350;20.898;2023-01-23T13:16:08;8.55;;;4.53;;
36653;SDS011;22650;49.350;20.898;2023-01-23T13:18:53;11.30;;;5.55;;
36653;SDS011;22650;49.350;20.898;2023-01-23T13:22:01;11.20;;;4.93;;
36653;SDS011;22650;49.350;20.898;2023-01-23T13:24:45;8.53;;;4.60;;
36653;SDS011;22650;49.350;20.898;2023-01-23T13:27:41;10.93;;;4.93;;
36653;SDS011;22650;49.350;20.898;2023-01-23T13:30:37;10.88;;;6.25;;
36653;SDS011;22650;49.350;20.898;2023-01-23T13:36:33;15.57;;;5.00;;
36653;SDS011;22650;49.350;20.898;2023-01-23T13:45:17;8.00;;;4.55;;
36653;SDS011;22650;49.350;20.898;2023-01-23T13:51:47;13.52;;;3.97;;
36653;SDS011;22650;49.350;20.898;2023-01-23T13:54:34;8.50;;;3.95;;
36653;SDS011;22650;49.350;20.898;2023-01-23T13:57:41;8.88;;;3.40;;
36653;SDS011;22650;49.350;20.898;2023-01-23T14:00:29;8.95;;;4.30;;
36653;SDS011;22650;49.350;20.898;2023-01-23T14:03:23;5.88;;;3.65;;
36653;SDS011;22650;49.350;20.898;2023-01-23T14:06:33;5.43;;;3.00;;
36653;SDS011;22650;49.350;20.898;2023-01-23T14:16:20;8.30;;;4.03;;
36653;SDS011;22650;49.350;20.898;2023-01-23T14:22:25;9.70;;;3.28;;
36653;SDS011;22650;49.350;20.898;2023-01-23T14:25:00;10.43;;;4.55;;
36653;SDS011;22650;49.350;20.898;2023-01-23T14:27:34;9.15;;;4.45;;
36653;SDS011;22650;49.350;20.898;2023-01-23T14:30:24;10.02;;;5.25;;
36653;SDS011;22650;49.350;20.898;2023-01-23T14:33:02;19.63;;;8.25;;
36653;SDS011;22650;49.350;20.898;2023-01-23T14:35:43;16.00;;;7.53;;
36653;SDS011;22650;49.350;20.898;2023-01-23T14:38:26;8.55;;;4.78;;
36653;SDS011;22650;49.350;20.898;2023-01-23T14:41:03;8.93;;;6.47;;
36653;SDS011;22650;49.350;20.898;2023-01-23T14:43:40;12.85;;;5.78;;
36653;SDS011;22650;49.350;20.898;2023-01-23T14:46:16;16.90;;;7.78;;
36653;SDS011;22650;49.350;20.898;2023-01-23T14:48:53;11.60;;;6.40;;
36653;SDS011;22650;49.350;20.898;2023-01-23T14:51:28;15.40;;;7.93;;
36653;SDS011;22650;49.350;20.898;2023-01-23T14:54:02;9.77;;;4.90;;
36653;SDS011;22650;49.350;20.898;2023-01-23T14:56:41;6.45;;;3.70;;
36653;SDS011;22650;49.350;20.898;2023-01-23T14:59:18;9.75;;;4.70;;
36653;SDS011;22650;49.350;20.898;2023-01-23T15:01:58;10.02;;;3.75;;
36653;SDS011;22650;49.350;20.898;2023-01-23T15:07:43;9.38;;;4.63;;
36653;SDS011;22650;49.350;20.898;2023-01-23T15:10:19;9.48;;;4.63;;
36653;SDS011;22650;49.350;20.898;2023-01-23T15:12:55;9.57;;;3.55;;
36653;SDS011;22650;49.350;20.898;2023-01-23T15:15:33;6.43;;;3.78;;
36653;SDS011;22650;49.350;20.898;2023-01-23T15:18:14;9.45;;;4.43;;
36653;SDS011;22650;49.350;20.898;2023-01-23T15:20:56;15.48;;;5.80;;
36653;SDS011;22650;49.350;20.898;2023-01-23T15:23:32;12.07;;;5.97;;
36653;SDS011;22650;49.350;20.898;2023-01-23T15:26:09;8.85;;;4.53;;
36653;SDS011;22650;49.350;20.898;2023-01-23T15:28:56;8.85;;;4.28;;
36653;SDS011;22650;49.350;20.898;2023-01-23T15:34:51;8.77;;;4.30;;
36653;SDS011;22650;49.350;20.898;2023-01-23T15:37:30;6.53;;;3.60;;
36653;SDS011;22650;49.350;20.898;2023-01-23T15:40:13;12.85;;;5.10;;
36653;SDS011;22650;49.350;20.898;2023-01-23T15:42:59;8.55;;;3.72;;
36653;SDS011;22650;49.350;20.898;2023-01-23T15:45:34;12.15;;;5.65;;
36653;SDS011;22650;49.350;20.898;2023-01-23T15:48:16;11.23;;;5.33;;
36653;SDS011;22650;49.350;20.898;2023-01-23T15:50:52;25.15;;;7.55;;
36653;SDS011;22650;49.350;20.898;2023-01-23T15:53:31;10.10;;;5.90;;
36653;SDS011;22650;49.350;20.898;2023-01-23T16:07:05;7.40;;;4.03;;
36653;SDS011;22650;49.350;20.898;2023-01-23T16:10:21;9.68;;;5.38;;
36653;SDS011;22650;49.350;20.898;2023-01-23T16:13:00;13.55;;;6.15;;
36653;SDS011;22650;49.350;20.898;2023-01-23T16:15:35;13.88;;;7.63;;
36653;SDS011;22650;49.350;20.898;2023-01-23T16:18:12;8.90;;;5.45;;
36653;SDS011;22650;49.350;20.898;2023-01-23T16:45:53;10.65;;;4.82;;
36653;SDS011;22650;49.350;20.898;2023-01-23T16:48:28;10.52;;;4.60;;
36653;SDS011;22650;49.350;20.898;2023-01-23T16:51:04;8.43;;;4.53;;
36653;SDS011;22650;49.350;20.898;2023-01-23T16:53:47;9.30;;;5.88;;
36653;SDS011;22650;49.350;20.898;2023-01-23T17:02:43;27.83;;;12.32;;